Time;durP1;ratioP1;P1;durP2;ratioP2;P2;SDS_P1;SDS_P2;PMS_P1;PMS_P2;Temp;Humidity;BMP_temperature;BMP_pressure;BME280_temperature;BME280_humidity;BME280_pressure;Samples;Min_cycle;Max_cycle;Signal;HPM_P1;HPM_P2
2021/03/23 00:01:05;;;;;;;9.17;4.63;;;3.90;99.90;;;;;;5012801;28;20645;-76
2021/03/23 00:03:37;;;;;;;10.43;5.33;;;3.80;99.90;;;;;;5003601;28;20668;-76
2021/03/23 00:06:03;;;;;;;9.43;4.90;;;3.90;99.90;;;;;;5011673;28;20181;-76
2021/03/23 00:08:38;;;;;;;14.07;6.37;;;3.90;99.90;;;;;;5013052;28;20196;-76
2021/03/23 00:11:11;;;;;;;16.03;6.40;;;3.90;99.90;;;;;;5016883;28;20181;-76
2021/03/23 00:13:38;;;;;;;14.63;6.87;;;3.90;99.90;;;;;;5016626;28;20655;-77
2021/03/23 00:16:04;;;;;;;8.93;6.27;;;4.00;99.90;;;;;;5016789;28;20177;-75
2021/03/23 00:18:30;;;;;;;13.53;6.47;;;4.00;99.90;;;;;;5016873;28;20188;-75
2021/03/23 00:20:56;;;;;;;11.80;7.23;;;3.90;99.90;;;;;;5015003;28;20197;-76
2021/03/23 00:23:21;;;;;;;13.00;6.63;;;3.90;99.90;;;;;;5015109;28;20177;-75
2021/03/23 00:25:47;;;;;;;10.30;6.57;;;4.10;99.90;;;;;;5018823;28;20656;-76
2021/03/23 00:28:13;;;;;;;12.53;6.93;;;4.10;99.90;;;;;;5016294;28;20208;-76
2021/03/23 00:30:39;;;;;;;9.87;6.07;;;4.10;99.90;;;;;;5014988;28;20173;-76
2021/03/23 00:33:05;;;;;;;10.73;5.50;;;4.10;99.90;;;;;;5016193;28;20171;-75
2021/03/23 00:35:30;;;;;;;10.87;5.40;;;4.10;99.90;;;;;;5014420;28;20238;-75
2021/03/23 00:37:58;;;;;;;10.47;5.90;;;4.10;99.90;;;;;;5014923;28;20204;-76
2021/03/23 00:40:34;;;;;;;14.43;5.50;;;3.90;99.90;;;;;;5015990;28;20284;-75
2021/03/23 00:43:02;;;;;;;11.00;5.53;;;3.90;99.90;;;;;;5015984;28;20176;-76
2021/03/23 00:45:29;;;;;;;9.23;5.57;;;3.90;99.90;;;;;;5016338;28;20254;-76
2021/03/23 00:47:56;;;;;;;8.77;5.83;;;3.80;99.90;;;;;;5015867;28;20192;-76
2021/03/23 00:50:22;;;;;;;17.33;6.33;;;3.80;99.90;;;;;;5014463;28;20182;-75
2021/03/23 00:52:47;;;;;;;11.63;5.50;;;3.70;99.90;;;;;;5023503;28;20314;-76
2021/03/23 00:55:14;;;;;;;16.20;5.77;;;3.80;99.90;;;;;;5023351;28;20180;-75
2021/03/23 00:57:40;;;;;;;12.07;6.00;;;3.80;99.90;;;;;;5015862;28;20203;-77
2021/03/23 01:00:10;;;;;;;8.90;5.67;;;3.80;99.90;;;;;;5015591;28;20187;-75
2021/03/23 01:02:35;;;;;;;14.47;8.00;;;3.80;99.90;;;;;;5015534;28;20167;-75
2021/03/23 01:05:02;;;;;;;15.27;7.60;;;3.90;99.90;;;;;;4997974;28;20782;-76
2021/03/23 01:07:31;;;;;;;10.30;6.77;;;3.90;99.90;;;;;;5015290;28;20222;-75
2021/03/23 01:09:58;;;;;;;13.60;7.90;;;3.90;99.90;;;;;;4997953;28;20235;-77
2021/03/23 01:12:24;;;;;;;17.07;7.20;;;3.90;99.90;;;;;;5015473;28;20262;-75
2021/03/23 01:14:49;;;;;;;14.87;6.77;;;3.90;99.90;;;;;;5013983;28;20605;-75
2021/03/23 01:17:17;;;;;;;11.30;6.03;;;4.00;99.90;;;;;;5014179;28;20291;-75
2021/03/23 01:19:43;;;;;;;11.33;6.83;;;3.90;99.90;;;;;;5015379;28;20176;-76
2021/03/23 01:22:09;;;;;;;13.13;6.47;;;3.90;99.90;;;;;;5013865;28;20251;-76
2021/03/23 01:24:35;;;;;;;16.00;6.47;;;3.90;99.90;;;;;;5015043;28;20172;-75
2021/03/23 01:27:03;;;;;;;13.67;6.57;;;3.80;99.90;;;;;;5015340;28;20200;-77
2021/03/23 01:29:29;;;;;;;13.47;6.80;;;3.80;99.90;;;;;;5015053;28;20220;-76
2021/03/23 01:31:55;;;;;;;8.97;5.90;;;3.70;99.90;;;;;;5015008;28;20529;-75
2021/03/23 01:34:21;;;;;;;14.37;7.17;;;3.70;99.90;;;;;;5013773;28;20635;-75
2021/03/23 01:36:47;;;;;;;12.03;7.23;;;3.70;99.90;;;;;;5014716;28;20231;-75
2021/03/23 01:39:13;;;;;;;12.37;8.23;;;3.70;99.90;;;;;;5014967;28;20179;-75
2021/03/23 01:41:38;;;;;;;11.30;7.87;;;3.70;99.90;;;;;;5013755;28;20297;-76
2021/03/23 01:44:04;;;;;;;16.30;8.10;;;3.80;99.90;;;;;;5013580;28;20185;-76
2021/03/23 01:46:48;;;;;;;16.33;7.20;;;3.80;99.90;;;;;;5014463;28;20258;-75
2021/03/23 01:49:28;;;;;;;20.37;8.23;;;3.80;99.90;;;;;;5014641;28;20259;-77
2021/03/23 01:51:58;;;;;;;15.93;8.00;;;3.80;99.90;;;;;;5014527;28;20642;-75
2021/03/23 01:54:28;;;;;;;9.77;6.23;;;3.80;99.90;;;;;;5014841;28;20169;-75
2021/03/23 01:56:58;;;;;;;10.53;7.97;;;3.80;99.90;;;;;;5014525;28;20204;-76
2021/03/23 01:59:25;;;;;;;12.23;7.33;;;3.80;99.90;;;;;;5014409;28;20248;-76
2021/03/23 02:01:55;;;;;;;13.63;7.93;;;3.80;99.90;;;;;;5014694;28;20210;-76
2021/03/23 02:04:23;;;;;;;18.00;8.23;;;3.80;99.90;;;;;;5014460;28;20557;-76
2021/03/23 02:06:50;;;;;;;11.90;7.93;;;3.80;99.90;;;;;;5014298;28;20213;-76
2021/03/23 02:09:23;;;;;;;17.10;7.93;;;3.80;99.90;;;;;;5013233;28;20176;-76
2021/03/23 02:11:54;;;;;;;15.07;8.50;;;3.80;99.90;;;;;;5014408;28;20190;-75
2021/03/23 02:14:23;;;;;;;15.17;7.80;;;3.80;99.90;;;;;;5014708;28;20175;-76
2021/03/23 02:16:48;;;;;;;17.13;8.67;;;3.80;99.90;;;;;;5014485;28;20232;-75
2021/03/23 02:19:20;;;;;;;14.13;7.90;;;3.80;99.90;;;;;;5014316;28;20576;-76
2021/03/23 02:21:46;;;;;;;12.60;8.47;;;3.90;99.90;;;;;;5013992;28;20192;-76
2021/03/23 02:24:14;;;;;;;12.30;7.77;;;3.90;99.90;;;;;;5013049;28;20184;-76
2021/03/23 02:26:40;;;;;;;9.93;7.47;;;3.90;99.90;;;;;;5014016;28;20678;-74
2021/03/23 02:29:13;;;;;;;10.43;7.70;;;3.90;99.90;;;;;;5008008;28;20171;-78
2021/03/23 02:31:43;;;;;;;11.07;7.70;;;3.90;99.90;;;;;;5015768;28;20180;-75
2021/03/23 02:34:13;;;;;;;16.20;8.00;;;3.90;99.90;;;;;;5014093;28;20255;-76
2021/03/23 02:36:40;;;;;;;16.10;7.53;;;3.90;99.90;;;;;;5013798;28;20196;-76
2021/03/23 02:39:08;;;;;;;13.63;7.83;;;3.90;99.90;;;;;;5014214;28;20190;-76
2021/03/23 02:41:34;;;;;;;15.40;8.10;;;3.80;99.90;;;;;;5013700;28;20197;-76
2021/03/23 02:43:59;;;;;;;13.63;7.60;;;3.80;99.90;;;;;;5013825;28;20173;-76
2021/03/23 02:46:25;;;;;;;11.73;7.77;;;3.80;99.90;;;;;;5013830;28;20347;-76
2021/03/23 02:48:51;;;;;;;11.20;7.90;;;3.80;99.90;;;;;;5013590;28;20172;-77
2021/03/23 02:51:18;;;;;;;11.90;7.40;;;3.80;99.90;;;;;;5015037;28;20318;-76
2021/03/23 02:53:47;;;;;;;11.57;7.87;;;3.80;99.90;;;;;;5013680;28;20176;-75
2021/03/23 02:56:14;;;;;;;12.90;8.67;;;3.80;99.90;;;;;;5013730;28;20228;-75
2021/03/23 02:58:39;;;;;;;11.67;7.63;;;3.80;99.90;;;;;;5013600;28;20180;-75
2021/03/23 03:01:07;;;;;;;16.30;8.60;;;3.80;99.90;;;;;;5013634;28;20200;-77
2021/03/23 03:03:33;;;;;;;13.20;8.50;;;3.80;99.90;;;;;;5013682;28;20544;-76
2021/03/23 03:05:58;;;;;;;13.10;8.40;;;3.80;99.90;;;;;;5012582;28;20185;-75
2021/03/23 03:08:25;;;;;;;13.03;8.03;;;3.90;99.90;;;;;;5045048;22;20752;-76
2021/03/23 03:10:52;;;;;;;13.47;8.13;;;3.90;99.90;;;;;;5033085;28;20649;-75
2021/03/23 03:13:21;;;;;;;12.17;8.07;;;3.90;99.90;;;;;;5031721;28;20200;-76
2021/03/23 03:15:47;;;;;;;10.63;7.70;;;3.80;99.90;;;;;;5032988;28;20237;-76
2021/03/23 03:18:14;;;;;;;9.50;7.63;;;3.80;99.90;;;;;;5027035;28;20203;-76
2021/03/23 03:20:40;;;;;;;8.67;7.67;;;3.80;99.90;;;;;;5013466;28;20203;-76
2021/03/23 03:23:06;;;;;;;14.97;7.70;;;3.80;99.90;;;;;;5011998;28;20254;-76
2021/03/23 03:25:32;;;;;;;11.43;7.13;;;3.70;99.90;;;;;;5011994;28;20275;-76
2021/03/23 03:27:59;;;;;;;11.30;7.83;;;3.70;99.90;;;;;;5013394;28;20225;-76
2021/03/23 03:30:32;;;;;;;12.73;7.43;;;3.70;99.90;;;;;;5009712;28;20191;-76
2021/03/23 03:32:58;;;;;;;12.43;7.93;;;3.70;99.90;;;;;;5005151;28;20183;-75
2021/03/23 03:35:30;;;;;;;12.67;7.73;;;3.70;99.90;;;;;;5010887;28;20173;-76
2021/03/23 03:37:57;;;;;;;15.73;8.57;;;3.70;99.90;;;;;;5011502;28;20196;-76
2021/03/23 03:40:38;;;;;;;16.73;8.93;;;3.70;99.90;;;;;;5012836;28;20254;-76
2021/03/23 03:43:04;;;;;;;15.23;8.80;;;3.60;99.90;;;;;;5014079;28;20666;-76
2021/03/23 03:45:30;;;;;;;14.23;8.77;;;3.60;99.90;;;;;;5017230;28;20532;-76
2021/03/23 03:47:57;;;;;;;14.77;8.87;;;3.70;99.90;;;;;;5016237;28;20207;-76
2021/03/23 03:50:25;;;;;;;15.50;8.87;;;3.70;99.90;;;;;;5016764;28;20226;-76
2021/03/23 03:52:51;;;;;;;13.40;8.73;;;3.70;99.90;;;;;;5016737;28;20193;-76
2021/03/23 03:55:21;;;;;;;9.80;7.83;;;3.70;99.90;;;;;;5016804;28;20176;-76
2021/03/23 03:57:47;;;;;;;11.13;7.97;;;3.70;99.90;;;;;;5003290;28;20167;-76
2021/03/23 04:00:16;;;;;;;15.13;8.87;;;3.70;99.90;;;;;;5015578;28;20547;-76
2021/03/23 04:02:42;;;;;;;13.33;8.93;;;3.60;99.90;;;;;;5015255;28;20167;-76
2021/03/23 04:05:14;;;;;;;12.23;8.37;;;3.60;99.90;;;;;;5015300;28;20179;-76
2021/03/23 04:07:40;;;;;;;16.67;8.33;;;3.70;99.90;;;;;;5015992;28;20169;-76
2021/03/23 04:10:06;;;;;;;13.77;8.87;;;3.70;99.90;;;;;;5016436;28;20649;-76
2021/03/23 04:12:32;;;;;;;18.77;8.50;;;3.70;99.90;;;;;;5015081;28;20255;-76
2021/03/23 04:14:57;;;;;;;19.33;9.30;;;3.70;99.90;;;;;;5016346;28;20607;-76
2021/03/23 04:17:23;;;;;;;15.50;8.67;;;3.70;99.90;;;;;;5016528;28;20207;-76
2021/03/23 04:19:49;;;;;;;17.07;9.70;;;3.70;99.90;;;;;;5016369;28;20239;-76
2021/03/23 04:22:16;;;;;;;14.63;8.93;;;3.70;99.90;;;;;;5016363;28;20236;-76
2021/03/23 04:24:41;;;;;;;18.57;9.17;;;3.70;99.90;;;;;;5016103;28;20544;-76
2021/03/23 04:27:08;;;;;;;11.80;8.57;;;3.70;99.90;;;;;;5037021;23;20227;-76
2021/03/23 04:29:34;;;;;;;14.33;8.73;;;3.70;99.90;;;;;;5019098;28;20234;-76
2021/03/23 04:31:59;;;;;;;12.13;8.47;;;3.70;99.90;;;;;;5017112;28;20609;-76
2021/03/23 04:34:25;;;;;;;12.83;8.50;;;3.70;99.90;;;;;;5016785;28;20259;-76
2021/03/23 04:36:50;;;;;;;13.93;8.73;;;3.70;99.90;;;;;;5015891;28;20167;-76
2021/03/23 04:39:16;;;;;;;18.10;7.90;;;3.60;99.90;;;;;;5014519;28;20280;-76
2021/03/23 04:41:42;;;;;;;18.13;9.53;;;3.60;99.90;;;;;;5015663;28;20672;-76
2021/03/23 04:44:08;;;;;;;12.77;8.87;;;3.60;99.90;;;;;;5016031;28;20181;-76
2021/03/23 04:46:35;;;;;;;16.13;9.30;;;3.60;99.90;;;;;;5015571;28;20541;-75
2021/03/23 04:49:00;;;;;;;16.43;8.70;;;3.60;99.90;;;;;;5003197;28;20223;-76
2021/03/23 04:51:28;;;;;;;14.50;8.83;;;3.60;99.90;;;;;;5009832;28;20180;-76
2021/03/23 04:54:00;;;;;;;12.10;9.03;;;3.70;99.90;;;;;;5013855;28;20184;-76
2021/03/23 04:56:29;;;;;;;15.90;9.07;;;3.70;99.90;;;;;;5015122;28;20177;-76
2021/03/23 04:58:55;;;;;;;12.67;9.50;;;3.70;99.90;;;;;;5012595;28;20210;-76
2021/03/23 05:01:22;;;;;;;15.20;10.10;;;3.70;99.90;;;;;;5012316;28;20226;-76
2021/03/23 05:04:00;;;;;;;15.93;10.10;;;3.70;99.90;;;;;;5032923;23;20703;-76
2021/03/23 05:06:27;;;;;;;14.67;8.97;;;3.70;99.90;;;;;;5029676;28;20234;-76
2021/03/23 05:08:53;;;;;;;13.30;8.90;;;3.70;99.90;;;;;;5017409;28;20211;-76
2021/03/23 05:11:22;;;;;;;17.87;9.80;;;3.60;99.90;;;;;;5006520;28;20255;-75
2021/03/23 05:13:49;;;;;;;18.73;9.43;;;3.60;99.90;;;;;;5005856;28;20191;-76
2021/03/23 05:16:15;;;;;;;20.43;9.93;;;3.60;99.90;;;;;;5007540;28;20182;-76
2021/03/23 05:18:41;;;;;;;15.10;9.53;;;3.60;99.90;;;;;;5000090;28;20558;-76
2021/03/23 05:21:07;;;;;;;14.73;9.87;;;3.50;99.90;;;;;;5006825;28;20204;-76
2021/03/23 05:23:33;;;;;;;18.13;9.70;;;3.50;99.90;;;;;;5000307;28;20668;-76
2021/03/23 05:26:00;;;;;;;16.10;9.27;;;3.50;99.90;;;;;;5006151;28;20340;-76
2021/03/23 05:28:27;;;;;;;15.63;9.40;;;3.50;99.90;;;;;;5018940;28;20687;-76
2021/03/23 05:30:53;;;;;;;14.27;9.53;;;3.50;99.90;;;;;;5000929;28;20183;-75
2021/03/23 05:33:20;;;;;;;12.00;8.90;;;3.50;99.90;;;;;;5014436;28;20172;-76
2021/03/23 05:35:45;;;;;;;12.53;9.37;;;3.40;99.90;;;;;;4997243;28;20678;-75
2021/03/23 05:38:11;;;;;;;16.00;9.40;;;3.40;99.90;;;;;;5013552;28;20214;-75
2021/03/23 05:40:41;;;;;;;16.83;10.97;;;3.40;99.90;;;;;;5011293;28;20565;-76
2021/03/23 05:43:32;;;;;;;19.70;10.07;;;3.40;99.90;;;;;;5013317;28;20548;-76
2021/03/23 05:46:03;;;;;;;15.40;10.20;;;3.40;99.90;;;;;;5014874;28;20258;-75
2021/03/23 05:48:35;;;;;;;17.27;9.40;;;3.30;99.90;;;;;;5013284;28;20744;-75
2021/03/23 05:51:09;;;;;;;11.60;9.00;;;3.40;99.90;;;;;;5014410;28;20182;-76
2021/03/23 05:54:05;;;;;;;12.53;8.67;;;3.20;99.90;;;;;;5014531;28;20177;-75
2021/03/23 05:56:36;;;;;;;18.77;9.37;;;3.20;99.90;;;;;;5013799;28;20533;-75
2021/03/23 05:59:16;;;;;;;15.47;9.27;;;3.10;99.90;;;;;;5021811;28;20195;-75
2021/03/23 06:01:59;;;;;;;13.87;8.50;;;3.00;99.90;;;;;;4992052;28;20229;-75
2021/03/23 06:04:34;;;;;;;15.47;9.27;;;2.90;99.90;;;;;;5011536;28;20214;-76
2021/03/23 06:07:04;;;;;;;13.70;9.37;;;2.90;99.90;;;;;;5012623;28;20560;-76
2021/03/23 06:09:36;;;;;;;19.93;9.93;;;2.90;99.90;;;;;;5012896;28;20287;-76
2021/03/23 06:12:20;;;;;;;9.97;8.97;;;2.90;99.90;;;;;;5014016;28;20671;-76
2021/03/23 06:15:21;;;;;;;16.47;10.83;;;2.90;99.90;;;;;;5010014;28;20560;-76
2021/03/23 06:17:58;;;;;;;14.63;10.17;;;2.90;99.90;;;;;;5011904;28;20689;-75
2021/03/23 06:20:42;;;;;;;15.70;10.33;;;3.00;99.90;;;;;;5013527;28;20639;-76
2021/03/23 06:23:34;;;;;;;17.30;9.67;;;3.10;99.90;;;;;;5005984;28;20290;-76
2021/03/23 06:26:17;;;;;;;14.50;10.00;;;3.10;99.90;;;;;;4995883;28;20347;-76
2021/03/23 06:28:55;;;;;;;18.17;10.13;;;3.20;99.90;;;;;;5013758;28;20732;-75
2021/03/23 06:31:58;;;;;;;13.87;9.60;;;3.30;99.90;;;;;;5013881;28;20214;-73
2021/03/23 06:34:30;;;;;;;13.73;9.03;;;3.40;99.90;;;;;;4971991;28;20181;-75
2021/03/23 06:36:58;;;;;;;18.50;9.97;;;3.50;99.90;;;;;;5006092;28;20183;-75
2021/03/23 06:39:24;;;;;;;16.27;10.17;;;3.50;99.90;;;;;;5013717;28;20196;-75
2021/03/23 06:41:57;;;;;;;13.03;8.57;;;3.60;99.90;;;;;;5013406;28;20199;-75
2021/03/23 06:44:29;;;;;;;14.63;9.33;;;3.60;99.90;;;;;;5013563;28;20177;-75
2021/03/23 06:46:55;;;;;;;13.97;8.90;;;3.60;99.90;;;;;;5013680;28;20174;-75
2021/03/23 06:49:29;;;;;;;12.03;8.70;;;3.70;99.90;;;;;;5013467;28;20189;-75
2021/03/23 06:51:59;;;;;;;18.37;10.60;;;3.80;99.90;;;;;;5014226;28;20509;-74
2021/03/23 06:54:37;;;;;;;12.80;10.77;;;3.80;99.90;;;;;;5013780;28;20223;-74
2021/03/23 06:57:12;;;;;;;13.67;10.00;;;3.80;99.90;;;;;;5013630;28;20614;-74
2021/03/23 07:00:12;;;;;;;17.87;9.90;;;4.00;99.90;;;;;;5014035;28;20681;-75
2021/03/23 07:02:41;;;;;;;12.17;10.27;;;3.90;99.90;;;;;;5015757;28;20207;-75
2021/03/23 07:05:35;;;;;;;16.97;10.13;;;3.90;99.90;;;;;;5013443;28;20190;-74
2021/03/23 07:08:11;;;;;;;19.80;11.53;;;4.00;99.90;;;;;;5028580;28;20566;-75
2021/03/23 07:10:44;;;;;;;17.93;12.03;;;4.10;99.90;;;;;;5013783;28;20647;-75
2021/03/23 07:13:32;;;;;;;18.70;11.43;;;4.20;99.90;;;;;;5012087;28;20173;-76
2021/03/23 07:16:10;;;;;;;19.07;11.83;;;4.30;99.90;;;;;;5012065;28;20643;-75
2021/03/23 07:18:39;;;;;;;23.43;12.43;;;4.30;99.90;;;;;;5032016;28;20199;-75
2021/03/23 07:21:12;;;;;;;18.20;11.93;;;4.40;99.90;;;;;;5017449;28;20206;-75
2021/03/23 07:23:41;;;;;;;19.73;12.13;;;4.50;99.90;;;;;;5017523;28;20173;-75
2021/03/23 07:26:29;;;;;;;19.50;11.83;;;4.60;99.90;;;;;;5016008;28;20175;-74
2021/03/23 07:29:10;;;;;;;17.40;11.50;;;4.70;99.90;;;;;;5015765;28;20217;-75
2021/03/23 07:31:41;;;;;;;18.97;12.13;;;4.80;99.90;;;;;;5017190;28;20176;-75
2021/03/23 07:34:25;;;;;;;19.60;11.50;;;4.90;99.90;;;;;;5032361;28;20170;-74
2021/03/23 07:36:57;;;;;;;16.77;10.53;;;5.00;99.90;;;;;;5017043;28;20185;-75
2021/03/23 07:39:32;;;;;;;24.23;12.50;;;5.00;99.90;;;;;;5016927;28;20201;-75
2021/03/23 07:42:04;;;;;;;24.00;12.83;;;5.10;99.90;;;;;;5017141;28;20190;-75
2021/03/23 07:44:44;;;;;;;23.77;13.73;;;5.10;99.90;;;;;;5016780;28;20235;-74
2021/03/23 07:47:38;;;;;;;17.73;12.40;;;5.20;99.90;;;;;;5017234;28;20281;-75
2021/03/23 07:50:22;;;;;;;18.83;12.07;;;5.30;99.90;;;;;;5017052;28;20560;-76
2021/03/23 07:52:51;;;;;;;17.50;12.27;;;5.40;99.90;;;;;;5032076;28;20177;-75
2021/03/23 07:55:24;;;;;;;19.23;11.27;;;5.40;99.90;;;;;;5031960;28;20169;-75
2021/03/23 07:58:04;;;;;;;18.73;11.50;;;5.40;99.90;;;;;;5016390;28;20201;-75
2021/03/23 08:00:49;;;;;;;16.87;12.43;;;5.30;99.90;;;;;;5016481;28;20647;-74
2021/03/23 08:03:23;;;;;;;22.07;11.83;;;5.40;99.90;;;;;;5016334;28;20661;-75
2021/03/23 08:05:55;;;;;;;21.67;12.20;;;5.30;99.90;;;;;;5016627;28;20181;-75
2021/03/23 08:08:50;;;;;;;19.03;12.40;;;5.40;99.90;;;;;;5016690;28;20185;-74
2021/03/23 08:11:33;;;;;;;14.63;11.07;;;5.30;99.90;;;;;;5015474;28;20562;-75
2021/03/23 08:14:25;;;;;;;19.37;11.93;;;5.30;99.90;;;;;;5016638;28;20182;-75
2021/03/23 08:17:12;;;;;;;20.07;12.60;;;5.30;99.90;;;;;;5016472;28;20201;-74
2021/03/23 08:19:57;;;;;;;20.97;12.87;;;5.30;99.90;;;;;;5016305;28;20189;-74
2021/03/23 08:22:41;;;;;;;15.90;12.20;;;5.50;99.90;;;;;;5016192;28;20191;-75
2021/03/23 08:25:22;;;;;;;17.77;12.50;;;5.50;99.90;;;;;;5016140;28;20174;-75
2021/03/23 08:28:00;;;;;;;20.80;12.93;;;5.60;99.90;;;;;;5031352;28;20169;-74
2021/03/23 08:30:53;;;;;;;20.50;12.40;;;5.70;99.90;;;;;;5015632;28;20214;-74
2021/03/23 08:33:28;;;;;;;22.20;13.20;;;5.60;99.90;;;;;;5016097;28;20656;-74
2021/03/23 08:35:54;;;;;;;19.53;12.13;;;5.80;99.90;;;;;;5016188;28;20178;-73
2021/03/23 08:38:28;;;;;;;14.80;11.57;;;5.80;99.90;;;;;;5015967;28;20256;-74
2021/03/23 08:41:13;;;;;;;18.20;12.23;;;6.00;99.90;;;;;;5029012;28;20226;-74
2021/03/23 08:43:42;;;;;;;21.00;11.50;;;6.00;99.90;;;;;;5016046;28;20176;-74
2021/03/23 08:46:22;;;;;;;17.23;12.87;;;6.10;99.90;;;;;;5015513;28;20176;-74
2021/03/23 08:49:01;;;;;;;15.10;12.07;;;6.00;99.90;;;;;;5015960;28;20275;-74
2021/03/23 08:51:29;;;;;;;17.80;11.30;;;6.00;99.90;;;;;;5015592;28;20171;-74
2021/03/23 08:53:57;;;;;;;18.30;11.63;;;6.00;99.90;;;;;;5030830;28;20301;-75
2021/03/23 08:56:41;;;;;;;19.07;11.80;;;6.00;99.90;;;;;;5015506;28;20179;-75
2021/03/23 08:59:36;;;;;;;17.63;12.20;;;6.00;99.90;;;;;;5015470;28;20279;-74
2021/03/23 09:02:28;;;;;;;18.90;12.07;;;6.10;99.90;;;;;;5030422;28;20219;-74
2021/03/23 09:04:58;;;;;;;21.87;11.67;;;6.20;99.90;;;;;;5014711;28;20216;-75
2021/03/23 09:07:30;;;;;;;22.67;11.10;;;6.20;99.90;;;;;;5015457;28;20178;-75
2021/03/23 09:09:56;;;;;;;15.70;10.80;;;6.30;99.90;;;;;;5043374;22;20239;-74
2021/03/23 09:12:43;;;;;;;17.90;10.40;;;6.40;99.90;;;;;;5034547;28;20175;-74
2021/03/23 09:15:19;;;;;;;13.57;10.20;;;6.50;99.90;;;;;;5033701;28;20678;-74
2021/03/23 09:18:05;;;;;;;16.03;9.53;;;6.70;99.90;;;;;;5023668;28;20577;-75
2021/03/23 09:20:31;;;;;;;12.97;9.57;;;6.80;99.90;;;;;;5013924;28;20270;-76
2021/03/23 09:23:19;;;;;;;11.53;10.13;;;6.90;99.90;;;;;;5015124;28;20249;-74
2021/03/23 09:25:49;;;;;;;15.13;10.17;;;6.90;99.90;;;;;;5015038;28;20171;-74
2021/03/23 09:28:30;;;;;;;15.53;9.67;;;6.80;99.90;;;;;;5014778;28;20671;-75
2021/03/23 09:31:11;;;;;;;14.37;9.77;;;6.90;99.90;;;;;;5014926;28;20181;-74
2021/03/23 09:33:50;;;;;;;16.33;10.67;;;6.80;99.90;;;;;;5013526;28;20179;-75
2021/03/23 09:36:24;;;;;;;10.70;8.60;;;6.90;99.90;;;;;;5013543;28;20318;-75
2021/03/23 09:38:55;;;;;;;13.17;8.73;;;6.80;99.90;;;;;;5014765;28;20190;-73
2021/03/23 09:41:20;;;;;;;11.87;9.07;;;6.80;99.90;;;;;;5013716;28;20277;-74
2021/03/23 09:44:10;;;;;;;16.40;9.50;;;7.00;99.90;;;;;;5013368;28;20269;-75
2021/03/23 09:46:56;;;;;;;11.93;10.27;;;7.00;99.90;;;;;;5014749;28;20198;-75
2021/03/23 09:49:24;;;;;;;11.10;8.17;;;7.30;99.90;;;;;;5013633;28;20563;-74
2021/03/23 09:52:03;;;;;;;15.37;9.93;;;7.40;99.90;;;;;;5014531;28;20171;-74
2021/03/23 09:54:35;;;;;;;12.00;8.03;;;7.70;99.90;;;;;;5014564;28;20181;-75
2021/03/23 09:57:10;;;;;;;14.53;8.43;;;7.70;99.90;;;;;;5013342;28;20641;-75
2021/03/23 09:59:44;;;;;;;14.40;9.27;;;7.70;99.90;;;;;;5014143;28;20198;-74
2021/03/23 10:02:22;;;;;;;11.77;8.77;;;7.60;99.90;;;;;;5014289;28;20277;-75
2021/03/23 10:04:49;;;;;;;13.00;9.27;;;7.60;99.90;;;;;;5014229;28;20166;-74
2021/03/23 10:07:24;;;;;;;14.80;9.57;;;7.50;99.90;;;;;;5014241;28;20250;-75
2021/03/23 10:10:08;;;;;;;10.23;8.00;;;7.50;99.90;;;;;;5014014;28;20203;-74
2021/03/23 10:12:34;;;;;;;7.87;7.17;;;7.60;99.90;;;;;;5012922;28;20645;-75
2021/03/23 10:15:17;;;;;;;10.93;8.20;;;7.50;99.90;;;;;;5014465;28;20209;-74
2021/03/23 10:17:43;;;;;;;8.80;7.90;;;7.50;99.90;;;;;;5013974;28;20198;-75
2021/03/23 10:20:12;;;;;;;10.00;8.30;;;7.40;99.90;;;;;;5014162;28;20665;-74
2021/03/23 10:22:38;;;;;;;11.73;8.73;;;7.30;99.90;;;;;;5013909;28;20555;-73
2021/03/23 10:25:14;;;;;;;8.97;7.90;;;7.30;99.90;;;;;;5012771;28;20236;-75
2021/03/23 10:27:40;;;;;;;13.00;8.60;;;7.30;99.90;;;;;;5013882;28;20182;-73
2021/03/23 10:30:26;;;;;;;13.20;8.10;;;7.30;99.90;;;;;;5013697;28;20201;-73
2021/03/23 10:32:56;;;;;;;17.80;8.53;;;7.30;99.90;;;;;;5006716;28;20186;-73
2021/03/23 10:35:28;;;;;;;13.30;9.80;;;7.20;99.90;;;;;;5016352;28;20278;-73
2021/03/23 10:38:17;;;;;;;14.87;9.90;;;7.20;99.90;;;;;;5013716;28;20543;-74
2021/03/23 10:40:45;;;;;;;12.20;8.90;;;7.20;99.90;;;;;;5013635;28;20178;-73
2021/03/23 10:43:28;;;;;;;12.33;9.33;;;7.30;99.90;;;;;;5012470;28;20238;-73
2021/03/23 10:45:54;;;;;;;11.73;9.80;;;7.40;99.90;;;;;;5013704;28;20184;-73
2021/03/23 10:48:33;;;;;;;12.53;9.37;;;7.50;99.90;;;;;;5013504;28;20641;-73
2021/03/23 10:51:19;;;;;;;10.43;8.87;;;7.50;99.90;;;;;;5012431;28;20179;-73
2021/03/23 10:54:10;;;;;;;11.97;9.40;;;7.50;99.90;;;;;;5008131;28;20186;-73
2021/03/23 10:56:41;;;;;;;14.10;9.10;;;7.70;99.90;;;;;;5013592;28;20167;-73
2021/03/23 10:59:11;;;;;;;16.23;10.00;;;7.80;99.90;;;;;;5012161;28;20567;-74
2021/03/23 11:01:55;;;;;;;10.40;8.03;;;7.90;99.90;;;;;;5014026;28;20665;-74
2021/03/23 11:04:21;;;;;;;10.03;8.10;;;7.90;99.90;;;;;;5013935;28;20654;-74
2021/03/23 11:06:47;;;;;;;12.10;8.67;;;8.00;99.90;;;;;;5013287;28;20233;-74
2021/03/23 11:09:17;;;;;;;13.43;8.80;;;8.20;99.90;;;;;;5013576;28;20195;-74
2021/03/23 11:11:49;;;;;;;10.70;9.00;;;8.20;99.90;;;;;;5012381;28;20206;-74
2021/03/23 11:14:15;;;;;;;11.50;8.23;;;8.30;99.90;;;;;;5015334;28;20183;-75
2021/03/23 11:16:43;;;;;;;10.40;8.40;;;8.40;99.90;;;;;;5013353;28;20238;-74
2021/03/23 11:19:30;;;;;;;9.77;7.90;;;8.40;99.90;;;;;;5011823;28;20207;-74
2021/03/23 11:21:59;;;;;;;9.63;6.87;;;8.10;99.90;;;;;;5013189;28;20222;-74
2021/03/23 11:24:27;;;;;;;10.83;7.80;;;8.20;99.90;;;;;;5012392;28;20210;-73
2021/03/23 11:26:53;;;;;;;8.40;7.33;;;8.20;99.90;;;;;;5013315;28;20175;-75
2021/03/23 11:29:19;;;;;;;8.37;7.20;;;8.20;99.90;;;;;;5013159;28;20662;-74
2021/03/23 11:31:45;;;;;;;9.37;6.90;;;8.20;99.90;;;;;;5011960;28;20272;-74
2021/03/23 11:34:11;;;;;;;7.70;6.67;;;8.20;99.90;;;;;;5012073;28;20275;-74
2021/03/23 11:36:37;;;;;;;7.57;6.67;;;8.30;99.90;;;;;;5013407;28;20254;-75
2021/03/23 11:39:06;;;;;;;9.17;7.53;;;8.30;99.90;;;;;;5013194;28;20199;-74
2021/03/23 11:41:37;;;;;;;10.23;7.37;;;8.40;99.90;;;;;;5012828;28;20191;-74
2021/03/23 11:44:25;;;;;;;26.57;13.40;;;8.60;99.90;;;;;;5011885;28;20192;-75
2021/03/23 11:47:16;;;;;;;9.97;7.10;;;8.80;99.90;;;;;;5011685;28;20270;-74
2021/03/23 11:49:56;;;;;;;7.63;6.63;;;8.80;99.90;;;;;;5012824;28;20551;-74
2021/03/23 11:52:23;;;;;;;8.80;7.40;;;8.80;99.90;;;;;;5000489;28;20190;-74
2021/03/23 11:54:49;;;;;;;11.47;7.23;;;8.70;99.90;;;;;;5013238;28;20187;-75
2021/03/23 11:57:15;;;;;;;9.37;7.27;;;8.70;99.90;;;;;;5011679;28;20665;-74
2021/03/23 11:59:41;;;;;;;8.07;6.80;;;8.70;99.90;;;;;;4996907;28;20208;-75
2021/03/23 12:02:10;;;;;;;9.87;7.40;;;8.70;99.90;;;;;;5003186;28;20195;-73
2021/03/23 12:04:36;;;;;;;8.90;7.30;;;8.80;99.90;;;;;;5003406;28;20180;-75
2021/03/23 12:07:44;;;;;;;9.70;6.87;;;8.80;99.90;;;;;;5007909;28;20258;-75
2021/03/23 12:10:19;;;;;;;12.80;7.30;;;8.90;99.90;;;;;;4984410;28;20310;-75
2021/03/23 12:12:58;;;;;;;7.03;6.40;;;8.90;99.90;;;;;;5008043;28;20230;-75
2021/03/23 12:15:35;;;;;;;9.63;6.83;;;9.00;99.90;;;;;;5004650;28;20219;-75
2021/03/23 12:18:08;;;;;;;9.10;7.30;;;9.10;99.90;;;;;;5010387;28;20214;-75
2021/03/23 12:20:36;;;;;;;8.30;7.40;;;9.20;99.90;;;;;;5003669;28;20255;-75
2021/03/23 12:23:04;;;;;;;10.67;6.87;;;9.20;99.90;;;;;;5007626;28;20218;-75
2021/03/23 12:25:30;;;;;;;7.37;6.47;;;9.20;99.90;;;;;;5003249;28;20184;-75
2021/03/23 12:27:57;;;;;;;7.87;7.07;;;9.20;99.90;;;;;;5000329;28;20188;-75
2021/03/23 12:30:24;;;;;;;13.07;7.80;;;9.30;99.90;;;;;;5006068;28;20200;-75
2021/03/23 12:32:50;;;;;;;9.07;6.50;;;9.30;99.90;;;;;;5000309;28;20176;-75
2021/03/23 12:35:23;;;;;;;8.03;6.73;;;9.40;99.90;;;;;;5008607;28;20183;-75
2021/03/23 12:37:52;;;;;;;6.93;6.23;;;9.30;99.90;;;;;;5005667;28;20197;-74
2021/03/23 12:40:20;;;;;;;7.27;6.40;;;9.60;99.90;;;;;;5007350;28;20558;-76
2021/03/23 12:42:46;;;;;;;9.67;7.00;;;9.70;99.90;;;;;;5012001;28;20211;-75
2021/03/23 12:45:27;;;;;;;9.23;7.20;;;9.70;99.90;;;;;;5004242;28;20175;-75
2021/03/23 12:47:53;;;;;;;7.93;6.30;;;9.80;99.90;;;;;;5011033;28;20181;-73
2021/03/23 12:50:19;;;;;;;7.27;6.40;;;9.80;99.90;;;;;;5006323;28;20203;-72
2021/03/23 12:52:45;;;;;;;9.20;7.53;;;9.90;99.90;;;;;;5007693;28;20242;-72
2021/03/23 12:55:24;;;;;;;10.67;6.67;;;10.10;99.90;;;;;;5002900;28;20183;-73
2021/03/23 12:57:54;;;;;;;8.20;6.83;;;10.20;99.90;;;;;;5013645;28;20183;-72
2021/03/23 13:00:27;;;;;;;8.33;6.80;;;10.20;99.90;;;;;;5013433;28;20214;-72
2021/03/23 13:02:54;;;;;;;9.93;7.77;;;10.20;99.90;;;;;;5006652;28;20203;-72
2021/03/23 13:05:21;;;;;;;10.73;7.70;;;10.40;99.90;;;;;;5019046;28;20196;-73
2021/03/23 13:07:49;;;;;;;9.63;7.50;;;10.40;99.90;;;;;;5003024;28;20394;-73
2021/03/23 13:10:42;;;;;;;10.97;7.00;;;10.60;99.90;;;;;;4997441;28;20216;-73